sensor_id;sensor_type;location;lat;lon;timestamp;temperature;humidity
69543;SHT31;56762;49.494;11.768;2023-09-07T00:00:16;16.00;81.90
69543;SHT31;56762;49.494;11.768;2023-09-07T00:02:46;15.95;81.82
69543;SHT31;56762;49.494;11.768;2023-09-07T00:05:13;15.93;82.16
69543;SHT31;56762;49.494;11.768;2023-09-07T00:07:41;15.88;82.25
69543;SHT31;56762;49.494;11.768;2023-09-07T00:10:09;15.85;82.27
69543;SHT31;56762;49.494;11.768;2023-09-07T00:12:37;15.81;82.19
69543;SHT31;56762;49.494;11.768;2023-09-07T00:15:07;15.77;82.34
69543;SHT31;56762;49.494;11.768;2023-09-07T00:17:35;15.75;82.44
69543;SHT31;56762;49.494;11.768;2023-09-07T00:20:05;15.70;82.56
69543;SHT31;56762;49.494;11.768;2023-09-07T00:22:37;15.68;82.48
69543;SHT31;56762;49.494;11.768;2023-09-07T00:25:06;15.66;82.65
69543;SHT31;56762;49.494;11.768;2023-09-07T00:27:34;15.63;82.55
69543;SHT31;56762;49.494;11.768;2023-09-07T00:30:02;15.62;82.68
69543;SHT31;56762;49.494;11.768;2023-09-07T00:32:32;15.59;82.79
69543;SHT31;56762;49.494;11.768;2023-09-07T00:35:00;15.55;82.65
69543;SHT31;56762;49.494;11.768;2023-09-07T00:37:29;15.52;82.88
69543;SHT31;56762;49.494;11.768;2023-09-07T00:39:57;15.51;83.04
69543;SHT31;56762;49.494;11.768;2023-09-07T00:42:24;15.51;83.20
69543;SHT31;56762;49.494;11.768;2023-09-07T00:44:53;15.48;83.31
69543;SHT31;56762;49.494;11.768;2023-09-07T00:47:21;15.47;83.16
69543;SHT31;56762;49.494;11.768;2023-09-07T00:49:50;15.45;83.22
69543;SHT31;56762;49.494;11.768;2023-09-07T00:52:18;15.45;83.10
69543;SHT31;56762;49.494;11.768;2023-09-07T00:54:49;15.45;83.07
69543;SHT31;56762;49.494;11.768;2023-09-07T00:57:16;15.41;82.93
69543;SHT31;56762;49.494;11.768;2023-09-07T00:59:44;15.37;83.05
69543;SHT31;56762;49.494;11.768;2023-09-07T01:02:12;15.35;82.98
69543;SHT31;56762;49.494;11.768;2023-09-07T01:04:40;15.32;83.17
69543;SHT31;56762;49.494;11.768;2023-09-07T01:07:14;15.28;82.85
69543;SHT31;56762;49.494;11.768;2023-09-07T01:09:44;15.30;83.18
69543;SHT31;56762;49.494;11.768;2023-09-07T01:12:16;15.24;82.95
69543;SHT31;56762;49.494;11.768;2023-09-07T01:14:44;15.20;83.26
69543;SHT31;56762;49.494;11.768;2023-09-07T01:17:12;15.21;83.39
69543;SHT31;56762;49.494;11.768;2023-09-07T01:19:40;15.18;83.24
69543;SHT31;56762;49.494;11.768;2023-09-07T01:22:10;15.20;83.24
69543;SHT31;56762;49.494;11.768;2023-09-07T01:24:38;15.16;83.11
69543;SHT31;56762;49.494;11.768;2023-09-07T01:27:07;15.12;83.05
69543;SHT31;56762;49.494;11.768;2023-09-07T01:29:35;15.11;83.26
69543;SHT31;56762;49.494;11.768;2023-09-07T01:32:04;15.12;83.22
69543;SHT31;56762;49.494;11.768;2023-09-07T01:34:32;15.10;83.26
69543;SHT31;56762;49.494;11.768;2023-09-07T01:37:00;15.08;83.39
69543;SHT31;56762;49.494;11.768;2023-09-07T01:39:30;15.10;83.23
69543;SHT31;56762;49.494;11.768;2023-09-07T01:41:58;15.07;83.21
69543;SHT31;56762;49.494;11.768;2023-09-07T01:44:25;15.01;83.20
69543;SHT31;56762;49.494;11.768;2023-09-07T01:46:53;15.04;83.34
69543;SHT31;56762;49.494;11.768;2023-09-07T01:49:21;15.01;83.11
69543;SHT31;56762;49.494;11.768;2023-09-07T01:51:51;14.97;83.29
69543;SHT31;56762;49.494;11.768;2023-09-07T01:54:18;14.97;83.24
69543;SHT31;56762;49.494;11.768;2023-09-07T01:56:51;15.00;83.34
69543;SHT31;56762;49.494;11.768;2023-09-07T01:59:18;14.97;83.30
69543;SHT31;56762;49.494;11.768;2023-09-07T02:01:46;14.97;83.58
69543;SHT31;56762;49.494;11.768;2023-09-07T02:04:14;14.97;83.60
69543;SHT31;56762;49.494;11.768;2023-09-07T02:06:42;14.97;83.48
69543;SHT31;56762;49.494;11.768;2023-09-07T02:09:10;14.97;83.49
69543;SHT31;56762;49.494;11.768;2023-09-07T02:11:37;14.94;82.91
69543;SHT31;56762;49.494;11.768;2023-09-07T02:14:07;14.90;83.21
69543;SHT31;56762;49.494;11.768;2023-09-07T02:16:37;14.86;83.27
69543;SHT31;56762;49.494;11.768;2023-09-07T02:19:05;14.86;83.04
69543;SHT31;56762;49.494;11.768;2023-09-07T02:21:34;14.84;82.96
69543;SHT31;56762;49.494;11.768;2023-09-07T02:24:01;14.83;82.84
69543;SHT31;56762;49.494;11.768;2023-09-07T02:26:29;14.83;82.93
69543;SHT31;56762;49.494;11.768;2023-09-07T02:28:57;14.81;82.93
69543;SHT31;56762;49.494;11.768;2023-09-07T02:31:26;14.77;82.86
69543;SHT31;56762;49.494;11.768;2023-09-07T02:33:54;14.76;82.93
69543;SHT31;56762;49.494;11.768;2023-09-07T02:36:22;14.75;83.13
69543;SHT31;56762;49.494;11.768;2023-09-07T02:38:50;14.73;83.25
69543;SHT31;56762;49.494;11.768;2023-09-07T02:41:18;14.76;83.19
69543;SHT31;56762;49.494;11.768;2023-09-07T02:43:45;14.72;83.16
69543;SHT31;56762;49.494;11.768;2023-09-07T02:46:13;14.73;83.41
69543;SHT31;56762;49.494;11.768;2023-09-07T02:48:42;14.70;83.24
69543;SHT31;56762;49.494;11.768;2023-09-07T02:51:10;14.70;83.25
69543;SHT31;56762;49.494;11.768;2023-09-07T02:53:38;14.66;83.28
69543;SHT31;56762;49.494;11.768;2023-09-07T02:56:05;14.63;82.84
69543;SHT31;56762;49.494;11.768;2023-09-07T02:58:34;14.62;82.63
69543;SHT31;56762;49.494;11.768;2023-09-07T03:01:05;14.59;83.17
69543;SHT31;56762;49.494;11.768;2023-09-07T03:03:35;14.55;83.30
69543;SHT31;56762;49.494;11.768;2023-09-07T03:06:15;14.55;83.05
69543;SHT31;56762;49.494;11.768;2023-09-07T03:08:44;14.55;83.43
69543;SHT31;56762;49.494;11.768;2023-09-07T03:11:12;14.55;83.15
69543;SHT31;56762;49.494;11.768;2023-09-07T03:13:40;14.52;83.32
69543;SHT31;56762;49.494;11.768;2023-09-07T03:16:09;14.52;83.56
69543;SHT31;56762;49.494;11.768;2023-09-07T03:18:37;14.50;83.47
69543;SHT31;56762;49.494;11.768;2023-09-07T03:21:05;14.50;83.97
69543;SHT31;56762;49.494;11.768;2023-09-07T03:23:34;14.49;83.60
69543;SHT31;56762;49.494;11.768;2023-09-07T03:26:02;14.50;83.59
69543;SHT31;56762;49.494;11.768;2023-09-07T03:28:30;14.50;83.26
69543;SHT31;56762;49.494;11.768;2023-09-07T03:30:58;14.46;82.95
69543;SHT31;56762;49.494;11.768;2023-09-07T03:33:26;14.43;83.18
69543;SHT31;56762;49.494;11.768;2023-09-07T03:35:54;14.42;83.18
69543;SHT31;56762;49.494;11.768;2023-09-07T03:38:25;14.42;83.50
69543;SHT31;56762;49.494;11.768;2023-09-07T03:40:54;14.46;83.51
69543;SHT31;56762;49.494;11.768;2023-09-07T03:43:23;14.45;82.71
69543;SHT31;56762;49.494;11.768;2023-09-07T03:45:50;14.39;82.81
69543;SHT31;56762;49.494;11.768;2023-09-07T03:48:19;14.32;82.88
69543;SHT31;56762;49.494;11.768;2023-09-07T03:50:47;14.29;82.70
69543;SHT31;56762;49.494;11.768;2023-09-07T03:53:15;14.24;82.90
69543;SHT31;56762;49.494;11.768;2023-09-07T03:55:44;14.21;82.98
69543;SHT31;56762;49.494;11.768;2023-09-07T03:58:13;14.21;83.01
69543;SHT31;56762;49.494;11.768;2023-09-07T04:00:41;14.18;82.75
69543;SHT31;56762;49.494;11.768;2023-09-07T04:03:09;14.14;82.89
69543;SHT31;56762;49.494;11.768;2023-09-07T04:05:38;14.11;83.03
69543;SHT31;56762;49.494;11.768;2023-09-07T04:08:06;14.11;83.25
69543;SHT31;56762;49.494;11.768;2023-09-07T04:10:36;14.09;83.17
69543;SHT31;56762;49.494;11.768;2023-09-07T04:13:04;14.07;83.04
69543;SHT31;56762;49.494;11.768;2023-09-07T04:15:34;14.04;83.08
69543;SHT31;56762;49.494;11.768;2023-09-07T04:18:03;14.01;82.94
69543;SHT31;56762;49.494;11.768;2023-09-07T04:20:31;14.05;83.04
69543;SHT31;56762;49.494;11.768;2023-09-07T04:22:59;14.02;83.13
69543;SHT31;56762;49.494;11.768;2023-09-07T04:25:26;14.02;83.22
69543;SHT31;56762;49.494;11.768;2023-09-07T04:27:54;14.00;83.09
69543;SHT31;56762;49.494;11.768;2023-09-07T04:30:23;13.98;83.08
69543;SHT31;56762;49.494;11.768;2023-09-07T04:32:52;13.98;83.28
69543;SHT31;56762;49.494;11.768;2023-09-07T04:35:20;13.97;83.47
69543;SHT31;56762;49.494;11.768;2023-09-07T04:37:48;13.95;83.42
69543;SHT31;56762;49.494;11.768;2023-09-07T04:40:16;13.92;83.17
69543;SHT31;56762;49.494;11.768;2023-09-07T04:42:44;13.94;82.73
69543;SHT31;56762;49.494;11.768;2023-09-07T04:45:12;13.94;83.05
69543;SHT31;56762;49.494;11.768;2023-09-07T04:47:40;13.88;82.62
69543;SHT31;56762;49.494;11.768;2023-09-07T04:50:10;13.92;82.81
69543;SHT31;56762;49.494;11.768;2023-09-07T04:52:38;13.88;83.00
69543;SHT31;56762;49.494;11.768;2023-09-07T04:55:06;13.87;82.94
69543;SHT31;56762;49.494;11.768;2023-09-07T04:57:36;13.87;83.27
69543;SHT31;56762;49.494;11.768;2023-09-07T05:00:05;13.88;83.20
69543;SHT31;56762;49.494;11.768;2023-09-07T05:02:33;13.88;83.70
69543;SHT31;56762;49.494;11.768;2023-09-07T05:05:05;13.82;83.48
69543;SHT31;56762;49.494;11.768;2023-09-07T05:07:35;13.64;84.70
69543;SHT31;56762;49.494;11.768;2023-09-07T05:10:03;13.51;85.09
69543;SHT31;56762;49.494;11.768;2023-09-07T05:12:31;13.73;89.60
69543;SHT31;56762;49.494;11.768;2023-09-07T05:14:59;14.21;89.66
69543;SHT31;56762;49.494;11.768;2023-09-07T05:17:27;14.72;88.36
69543;SHT31;56762;49.494;11.768;2023-09-07T05:19:55;15.11;87.03
69543;SHT31;56762;49.494;11.768;2023-09-07T05:22:22;15.41;85.26
69543;SHT31;56762;49.494;11.768;2023-09-07T05:24:54;15.69;84.64
69543;SHT31;56762;49.494;11.768;2023-09-07T05:27:21;15.86;83.26
69543;SHT31;56762;49.494;11.768;2023-09-07T05:29:49;16.00;83.04
69543;SHT31;56762;49.494;11.768;2023-09-07T05:32:17;16.08;82.70
69543;SHT31;56762;49.494;11.768;2023-09-07T05:34:45;16.17;82.66
69543;SHT31;56762;49.494;11.768;2023-09-07T05:37:13;16.29;82.37
69543;SHT31;56762;49.494;11.768;2023-09-07T05:39:41;16.41;81.56
69543;SHT31;56762;49.494;11.768;2023-09-07T05:42:10;16.51;81.37
69543;SHT31;56762;49.494;11.768;2023-09-07T05:44:39;16.61;80.82
69543;SHT31;56762;49.494;11.768;2023-09-07T05:47:06;16.70;80.78
69543;SHT31;56762;49.494;11.768;2023-09-07T05:49:34;16.75;80.64
69543;SHT31;56762;49.494;11.768;2023-09-07T05:52:02;16.78;80.65
69543;SHT31;56762;49.494;11.768;2023-09-07T05:54:34;16.85;80.49
69543;SHT31;56762;49.494;11.768;2023-09-07T05:57:02;16.89;80.30
69543;SHT31;56762;49.494;11.768;2023-09-07T05:59:32;16.95;80.14
69543;SHT31;56762;49.494;11.768;2023-09-07T06:02:00;16.98;79.32
69543;SHT31;56762;49.494;11.768;2023-09-07T06:04:28;16.89;79.00
69543;SHT31;56762;49.494;11.768;2023-09-07T06:06:56;16.82;79.04
69543;SHT31;56762;49.494;11.768;2023-09-07T06:09:24;16.78;78.26
69543;SHT31;56762;49.494;11.768;2023-09-07T06:11:52;16.72;79.20
69543;SHT31;56762;49.494;11.768;2023-09-07T06:14:20;16.71;79.20
69543;SHT31;56762;49.494;11.768;2023-09-07T06:16:49;16.72;78.98
69543;SHT31;56762;49.494;11.768;2023-09-07T06:19:18;16.74;79.26
69543;SHT31;56762;49.494;11.768;2023-09-07T06:21:46;16.79;78.71
69543;SHT31;56762;49.494;11.768;2023-09-07T06:24:14;16.85;78.73
69543;SHT31;56762;49.494;11.768;2023-09-07T06:26:42;16.89;78.87
69543;SHT31;56762;49.494;11.768;2023-09-07T06:29:10;16.95;78.50
69543;SHT31;56762;49.494;11.768;2023-09-07T06:31:38;17.04;78.39
69543;SHT31;56762;49.494;11.768;2023-09-07T06:34:08;17.07;78.48
69543;SHT31;56762;49.494;11.768;2023-09-07T06:36:36;17.09;78.18
69543;SHT31;56762;49.494;11.768;2023-09-07T06:39:14;17.12;78.02
69543;SHT31;56762;49.494;11.768;2023-09-07T06:41:43;17.15;78.13
69543;SHT31;56762;49.494;11.768;2023-09-07T06:44:11;17.22;77.66
69543;SHT31;56762;49.494;11.768;2023-09-07T06:46:39;17.26;77.86
69543;SHT31;56762;49.494;11.768;2023-09-07T06:49:08;17.30;77.51
69543;SHT31;56762;49.494;11.768;2023-09-07T06:51:36;17.36;78.05
69543;SHT31;56762;49.494;11.768;2023-09-07T06:54:04;17.40;77.77
69543;SHT31;56762;49.494;11.768;2023-09-07T06:56:32;17.46;77.09
69543;SHT31;56762;49.494;11.768;2023-09-07T06:59:01;17.50;77.22
69543;SHT31;56762;49.494;11.768;2023-09-07T07:01:29;17.53;76.87
69543;SHT31;56762;49.494;11.768;2023-09-07T07:03:57;17.59;77.00
69543;SHT31;56762;49.494;11.768;2023-09-07T07:06:26;17.62;77.02
69543;SHT31;56762;49.494;11.768;2023-09-07T07:08:54;17.65;76.82
69543;SHT31;56762;49.494;11.768;2023-09-07T07:11:22;17.66;76.51
69543;SHT31;56762;49.494;11.768;2023-09-07T07:13:50;17.70;76.42
69543;SHT31;56762;49.494;11.768;2023-09-07T07:16:18;17.74;76.55
69543;SHT31;56762;49.494;11.768;2023-09-07T07:18:46;17.80;76.03
69543;SHT31;56762;49.494;11.768;2023-09-07T07:21:17;17.84;75.72
69543;SHT31;56762;49.494;11.768;2023-09-07T07:23:46;17.90;76.34
69543;SHT31;56762;49.494;11.768;2023-09-07T07:26:14;17.90;75.90
69543;SHT31;56762;49.494;11.768;2023-09-07T07:28:41;17.93;75.76
69543;SHT31;56762;49.494;11.768;2023-09-07T07:31:19;17.96;76.13
69543;SHT31;56762;49.494;11.768;2023-09-07T07:33:46;17.97;76.39
69543;SHT31;56762;49.494;11.768;2023-09-07T07:36:15;18.00;76.62
69543;SHT31;56762;49.494;11.768;2023-09-07T07:38:43;18.01;77.44
69543;SHT31;56762;49.494;11.768;2023-09-07T07:41:12;18.05;77.16
69543;SHT31;56762;49.494;11.768;2023-09-07T07:43:40;18.05;77.23
69543;SHT31;56762;49.494;11.768;2023-09-07T07:46:08;18.08;77.68
69543;SHT31;56762;49.494;11.768;2023-09-07T07:48:36;18.15;77.84
69543;SHT31;56762;49.494;11.768;2023-09-07T07:51:04;18.14;77.10
69543;SHT31;56762;49.494;11.768;2023-09-07T07:53:36;18.15;76.99
69543;SHT31;56762;49.494;11.768;2023-09-07T07:56:04;18.20;76.47
69543;SHT31;56762;49.494;11.768;2023-09-07T07:58:33;18.18;76.89
69543;SHT31;56762;49.494;11.768;2023-09-07T08:01:01;18.22;77.76
69543;SHT31;56762;49.494;11.768;2023-09-07T08:03:29;18.24;77.46
69543;SHT31;56762;49.494;11.768;2023-09-07T08:05:58;18.25;77.19
69543;SHT31;56762;49.494;11.768;2023-09-07T08:08:26;18.28;77.55
69543;SHT31;56762;49.494;11.768;2023-09-07T08:10:53;18.31;77.33
69543;SHT31;56762;49.494;11.768;2023-09-07T08:13:21;18.34;77.38
69543;SHT31;56762;49.494;11.768;2023-09-07T08:15:51;18.35;77.53
69543;SHT31;56762;49.494;11.768;2023-09-07T08:18:19;18.42;77.16
69543;SHT31;56762;49.494;11.768;2023-09-07T08:20:46;18.42;77.00
69543;SHT31;56762;49.494;11.768;2023-09-07T08:23:14;18.42;76.77
69543;SHT31;56762;49.494;11.768;2023-09-07T08:25:42;18.47;77.36
69543;SHT31;56762;49.494;11.768;2023-09-07T08:28:13;18.48;77.29
69543;SHT31;56762;49.494;11.768;2023-09-07T08:30:42;18.52;76.86
69543;SHT31;56762;49.494;11.768;2023-09-07T08:33:11;18.51;76.61
69543;SHT31;56762;49.494;11.768;2023-09-07T08:35:39;18.55;76.73
69543;SHT31;56762;49.494;11.768;2023-09-07T08:38:11;18.59;76.80
69543;SHT31;56762;49.494;11.768;2023-09-07T08:40:39;18.60;76.58
69543;SHT31;56762;49.494;11.768;2023-09-07T08:43:09;18.62;77.02
69543;SHT31;56762;49.494;11.768;2023-09-07T08:45:43;18.65;76.86
69543;SHT31;56762;49.494;11.768;2023-09-07T08:48:15;18.70;77.10
69543;SHT31;56762;49.494;11.768;2023-09-07T08:50:44;18.73;76.22
69543;SHT31;56762;49.494;11.768;2023-09-07T08:53:18;18.75;76.52
69543;SHT31;56762;49.494;11.768;2023-09-07T08:55:46;18.80;75.72
69543;SHT31;56762;49.494;11.768;2023-09-07T08:58:14;18.88;76.27
69543;SHT31;56762;49.494;11.768;2023-09-07T09:00:42;18.90;75.24
69543;SHT31;56762;49.494;11.768;2023-09-07T09:03:10;18.93;75.35
69543;SHT31;56762;49.494;11.768;2023-09-07T09:05:40;19.00;75.02
69543;SHT31;56762;49.494;11.768;2023-09-07T09:08:08;19.06;75.10
69543;SHT31;56762;49.494;11.768;2023-09-07T09:10:38;19.10;75.43
69543;SHT31;56762;49.494;11.768;2023-09-07T09:13:07;19.16;75.51
69543;SHT31;56762;49.494;11.768;2023-09-07T09:15:35;19.17;75.95
69543;SHT31;56762;49.494;11.768;2023-09-07T09:18:10;19.21;76.20
69543;SHT31;56762;49.494;11.768;2023-09-07T09:20:40;19.24;75.91
69543;SHT31;56762;49.494;11.768;2023-09-07T09:23:09;19.27;75.88
69543;SHT31;56762;49.494;11.768;2023-09-07T09:25:40;19.32;76.19
69543;SHT31;56762;49.494;11.768;2023-09-07T09:28:09;19.34;75.69
69543;SHT31;56762;49.494;11.768;2023-09-07T09:30:37;19.37;75.79
69543;SHT31;56762;49.494;11.768;2023-09-07T09:33:06;19.40;75.49
69543;SHT31;56762;49.494;11.768;2023-09-07T09:35:34;19.46;75.57
69543;SHT31;56762;49.494;11.768;2023-09-07T09:38:04;19.50;74.45
69543;SHT31;56762;49.494;11.768;2023-09-07T09:40:33;19.51;73.24
69543;SHT31;56762;49.494;11.768;2023-09-07T09:43:02;19.55;73.53
69543;SHT31;56762;49.494;11.768;2023-09-07T09:45:31;19.60;74.65
69543;SHT31;56762;49.494;11.768;2023-09-07T09:48:00;19.62;75.01
69543;SHT31;56762;49.494;11.768;2023-09-07T09:50:28;19.68;74.36
69543;SHT31;56762;49.494;11.768;2023-09-07T09:52:56;19.69;73.51
69543;SHT31;56762;49.494;11.768;2023-09-07T09:55:30;19.77;72.44
69543;SHT31;56762;49.494;11.768;2023-09-07T09:57:58;19.82;70.49
69543;SHT31;56762;49.494;11.768;2023-09-07T10:00:27;19.93;70.35
69543;SHT31;56762;49.494;11.768;2023-09-07T10:03:02;20.05;69.44
69543;SHT31;56762;49.494;11.768;2023-09-07T10:05:32;20.13;69.46
69543;SHT31;56762;49.494;11.768;2023-09-07T10:08:02;20.15;69.27
69543;SHT31;56762;49.494;11.768;2023-09-07T10:10:35;20.23;68.79
69543;SHT31;56762;49.494;11.768;2023-09-07T10:13:04;20.25;68.46
69543;SHT31;56762;49.494;11.768;2023-09-07T10:15:33;20.34;68.10
69543;SHT31;56762;49.494;11.768;2023-09-07T10:18:04;20.41;68.26
69543;SHT31;56762;49.494;11.768;2023-09-07T10:20:47;20.53;66.75
69543;SHT31;56762;49.494;11.768;2023-09-07T10:23:16;20.61;67.15
69543;SHT31;56762;49.494;11.768;2023-09-07T10:25:49;20.71;67.10
69543;SHT31;56762;49.494;11.768;2023-09-07T10:28:18;20.73;65.93
69543;SHT31;56762;49.494;11.768;2023-09-07T10:30:58;20.79;67.14
69543;SHT31;56762;49.494;11.768;2023-09-07T10:33:26;20.90;66.34
69543;SHT31;56762;49.494;11.768;2023-09-07T10:35:54;20.92;66.19
69543;SHT31;56762;49.494;11.768;2023-09-07T10:38:23;20.94;66.58
69543;SHT31;56762;49.494;11.768;2023-09-07T10:40:56;20.94;66.04
69543;SHT31;56762;49.494;11.768;2023-09-07T10:43:26;20.94;65.89
69543;SHT31;56762;49.494;11.768;2023-09-07T10:45:54;21.04;65.46
69543;SHT31;56762;49.494;11.768;2023-09-07T10:48:22;21.05;65.25
69543;SHT31;56762;49.494;11.768;2023-09-07T10:50:51;21.11;65.78
69543;SHT31;56762;49.494;11.768;2023-09-07T10:53:26;21.17;64.77
69543;SHT31;56762;49.494;11.768;2023-09-07T10:55:57;21.25;64.88
69543;SHT31;56762;49.494;11.768;2023-09-07T10:58:26;21.29;65.60
69543;SHT31;56762;49.494;11.768;2023-09-07T11:00:57;21.42;64.09
69543;SHT31;56762;49.494;11.768;2023-09-07T11:03:26;21.43;63.58
69543;SHT31;56762;49.494;11.768;2023-09-07T11:05:56;21.46;63.67
69543;SHT31;56762;49.494;11.768;2023-09-07T11:08:28;21.59;62.64
69543;SHT31;56762;49.494;11.768;2023-09-07T11:10:58;21.66;62.67
69543;SHT31;56762;49.494;11.768;2023-09-07T11:13:26;21.70;62.32
69543;SHT31;56762;49.494;11.768;2023-09-07T11:15:56;21.70;63.01
69543;SHT31;56762;49.494;11.768;2023-09-07T11:18:24;21.67;62.17
69543;SHT31;56762;49.494;11.768;2023-09-07T11:20:53;21.70;63.66
69543;SHT31;56762;49.494;11.768;2023-09-07T11:23:21;21.85;61.30
69543;SHT31;56762;49.494;11.768;2023-09-07T11:25:51;21.86;61.56
69543;SHT31;56762;49.494;11.768;2023-09-07T11:28:20;21.90;61.84
69543;SHT31;56762;49.494;11.768;2023-09-07T11:30:49;21.99;61.54
69543;SHT31;56762;49.494;11.768;2023-09-07T11:33:18;22.04;61.17
69543;SHT31;56762;49.494;11.768;2023-09-07T11:35:46;22.04;62.09
69543;SHT31;56762;49.494;11.768;2023-09-07T11:38:15;22.10;60.32
69543;SHT31;56762;49.494;11.768;2023-09-07T11:40:44;22.16;59.94
69543;SHT31;56762;49.494;11.768;2023-09-07T11:43:12;22.25;59.73
69543;SHT31;56762;49.494;11.768;2023-09-07T11:45:43;22.25;61.38
69543;SHT31;56762;49.494;11.768;2023-09-07T11:48:11;22.27;59.24
69543;SHT31;56762;49.494;11.768;2023-09-07T11:50:39;22.31;59.43
69543;SHT31;56762;49.494;11.768;2023-09-07T11:53:07;22.37;59.11
69543;SHT31;56762;49.494;11.768;2023-09-07T11:55:36;22.48;58.27
69543;SHT31;56762;49.494;11.768;2023-09-07T11:58:04;22.58;57.69
69543;SHT31;56762;49.494;11.768;2023-09-07T12:00:32;22.59;59.09
69543;SHT31;56762;49.494;11.768;2023-09-07T12:03:01;22.65;57.15
69543;SHT31;56762;49.494;11.768;2023-09-07T12:05:47;22.71;56.02
69543;SHT31;56762;49.494;11.768;2023-09-07T12:08:15;22.73;56.80
69543;SHT31;56762;49.494;11.768;2023-09-07T12:10:43;22.71;57.69
69543;SHT31;56762;49.494;11.768;2023-09-07T12:13:10;22.72;57.74
69543;SHT31;56762;49.494;11.768;2023-09-07T12:15:38;22.78;57.15
69543;SHT31;56762;49.494;11.768;2023-09-07T12:18:07;22.73;56.75
69543;SHT31;56762;49.494;11.768;2023-09-07T12:20:36;22.76;57.87
69543;SHT31;56762;49.494;11.768;2023-09-07T12:23:04;22.79;55.81
69543;SHT31;56762;49.494;11.768;2023-09-07T12:25:31;22.76;55.05
69543;SHT31;56762;49.494;11.768;2023-09-07T12:27:59;22.78;55.08
69543;SHT31;56762;49.494;11.768;2023-09-07T12:30:27;22.78;54.65
69543;SHT31;56762;49.494;11.768;2023-09-07T12:32:55;22.88;54.58
69543;SHT31;56762;49.494;11.768;2023-09-07T12:35:24;22.96;54.50
69543;SHT31;56762;49.494;11.768;2023-09-07T12:37:52;22.94;55.34
69543;SHT31;56762;49.494;11.768;2023-09-07T12:40:20;22.91;55.64
69543;SHT31;56762;49.494;11.768;2023-09-07T12:42:49;22.94;55.67
69543;SHT31;56762;49.494;11.768;2023-09-07T12:45:17;22.95;55.16
69543;SHT31;56762;49.494;11.768;2023-09-07T12:47:45;23.00;54.03
69543;SHT31;56762;49.494;11.768;2023-09-07T12:50:12;23.03;53.43
69543;SHT31;56762;49.494;11.768;2023-09-07T12:52:42;23.19;52.09
69543;SHT31;56762;49.494;11.768;2023-09-07T12:55:10;23.31;52.29
69543;SHT31;56762;49.494;11.768;2023-09-07T12:57:38;23.31;52.76
69543;SHT31;56762;49.494;11.768;2023-09-07T13:00:08;23.36;51.66
69543;SHT31;56762;49.494;11.768;2023-09-07T13:02:37;23.38;52.14
69543;SHT31;56762;49.494;11.768;2023-09-07T13:05:06;23.45;51.14
69543;SHT31;56762;49.494;11.768;2023-09-07T13:07:34;23.43;51.59
69543;SHT31;56762;49.494;11.768;2023-09-07T13:10:04;23.39;52.91
69543;SHT31;56762;49.494;11.768;2023-09-07T13:12:33;23.40;52.26
69543;SHT31;56762;49.494;11.768;2023-09-07T13:15:00;23.40;52.09
69543;SHT31;56762;49.494;11.768;2023-09-07T13:17:29;23.43;51.23
69543;SHT31;56762;49.494;11.768;2023-09-07T13:19:57;23.53;51.56
69543;SHT31;56762;49.494;11.768;2023-09-07T13:22:25;23.49;52.11
69543;SHT31;56762;49.494;11.768;2023-09-07T13:24:53;23.49;51.45
69543;SHT31;56762;49.494;11.768;2023-09-07T13:27:22;23.54;50.59
69543;SHT31;56762;49.494;11.768;2023-09-07T13:29:51;23.51;52.20
69543;SHT31;56762;49.494;11.768;2023-09-07T13:32:19;23.56;51.39
69543;SHT31;56762;49.494;11.768;2023-09-07T13:34:47;23.57;49.68
69543;SHT31;56762;49.494;11.768;2023-09-07T13:37:15;23.61;50.11
69543;SHT31;56762;49.494;11.768;2023-09-07T13:39:42;23.57;51.73
69543;SHT31;56762;49.494;11.768;2023-09-07T13:42:10;23.54;51.64
69543;SHT31;56762;49.494;11.768;2023-09-07T13:44:39;23.56;50.84
69543;SHT31;56762;49.494;11.768;2023-09-07T13:47:07;23.61;50.46
69543;SHT31;56762;49.494;11.768;2023-09-07T13:49:35;23.61;52.13
69543;SHT31;56762;49.494;11.768;2023-09-07T13:52:04;23.60;51.66
69543;SHT31;56762;49.494;11.768;2023-09-07T13:54:31;23.59;50.58
69543;SHT31;56762;49.494;11.768;2023-09-07T13:56:59;23.59;51.16
69543;SHT31;56762;49.494;11.768;2023-09-07T13:59:27;23.57;51.23
69543;SHT31;56762;49.494;11.768;2023-09-07T14:02:00;23.59;51.47
69543;SHT31;56762;49.494;11.768;2023-09-07T14:04:28;23.57;51.87
69543;SHT31;56762;49.494;11.768;2023-09-07T14:06:57;23.70;49.19
69543;SHT31;56762;49.494;11.768;2023-09-07T14:09:25;23.69;50.11
69543;SHT31;56762;49.494;11.768;2023-09-07T14:11:53;23.70;50.80
69543;SHT31;56762;49.494;11.768;2023-09-07T14:14:20;23.69;50.65
69543;SHT31;56762;49.494;11.768;2023-09-07T14:16:48;23.70;50.78
69543;SHT31;56762;49.494;11.768;2023-09-07T14:19:23;23.74;50.60
69543;SHT31;56762;49.494;11.768;2023-09-07T14:21:53;23.81;50.50
69543;SHT31;56762;49.494;11.768;2023-09-07T14:24:21;23.85;50.49
69543;SHT31;56762;49.494;11.768;2023-09-07T14:26:48;23.81;50.61
69543;SHT31;56762;49.494;11.768;2023-09-07T14:29:16;23.84;50.66
69543;SHT31;56762;49.494;11.768;2023-09-07T14:31:44;23.87;51.60
69543;SHT31;56762;49.494;11.768;2023-09-07T14:34:13;23.87;51.04
69543;SHT31;56762;49.494;11.768;2023-09-07T14:36:42;23.84;50.95
69543;SHT31;56762;49.494;11.768;2023-09-07T14:39:10;23.80;50.76
69543;SHT31;56762;49.494;11.768;2023-09-07T14:41:38;23.94;51.21
69543;SHT31;56762;49.494;11.768;2023-09-07T14:44:06;24.00;50.81
69543;SHT31;56762;49.494;11.768;2023-09-07T14:46:36;24.02;52.16
69543;SHT31;56762;49.494;11.768;2023-09-07T14:49:04;24.07;50.40
69543;SHT31;56762;49.494;11.768;2023-09-07T14:51:31;24.15;50.25
69543;SHT31;56762;49.494;11.768;2023-09-07T14:54:01;24.24;51.04
69543;SHT31;56762;49.494;11.768;2023-09-07T14:56:29;24.21;50.56
69543;SHT31;56762;49.494;11.768;2023-09-07T14:59:02;24.32;49.16
69543;SHT31;56762;49.494;11.768;2023-09-07T15:01:29;24.35;50.07
69543;SHT31;56762;49.494;11.768;2023-09-07T15:03:58;24.43;49.29
69543;SHT31;56762;49.494;11.768;2023-09-07T15:06:26;24.31;51.57
69543;SHT31;56762;49.494;11.768;2023-09-07T15:08:55;24.19;51.61
69543;SHT31;56762;49.494;11.768;2023-09-07T15:11:24;24.12;51.47
69543;SHT31;56762;49.494;11.768;2023-09-07T15:13:52;24.08;51.51
69543;SHT31;56762;49.494;11.768;2023-09-07T15:16:21;24.05;52.16
69543;SHT31;56762;49.494;11.768;2023-09-07T15:18:50;24.00;52.66
69543;SHT31;56762;49.494;11.768;2023-09-07T15:21:19;23.98;52.27
69543;SHT31;56762;49.494;11.768;2023-09-07T15:23:48;24.01;52.20